createdAt,value
2022-12-28T00:00:49.463Z,52.30
2022-12-28T00:06:09.221Z,52.30
2022-12-28T00:08:41.250Z,52.34
2022-12-28T00:11:20.545Z,52.47
2022-12-28T00:13:59.042Z,52.75
2022-12-28T00:16:41.446Z,52.74
2022-12-28T00:19:20.650Z,52.52
2022-12-28T00:21:52.283Z,52.55
2022-12-28T00:24:49.625Z,52.49
2022-12-28T00:27:29.735Z,52.29
2022-12-28T00:30:08.041Z,52.60
2022-12-28T00:32:40.159Z,52.61
2022-12-28T00:35:07.433Z,52.44
2022-12-28T00:37:40.575Z,52.29
2022-12-28T00:43:00.175Z,52.50
2022-12-28T00:45:40.416Z,52.93
2022-12-28T00:48:12.556Z,52.64
2022-12-28T00:50:56.190Z,52.71
2022-12-28T00:53:32.635Z,52.80
2022-12-28T00:56:12.110Z,52.68
2022-12-28T00:58:47.218Z,52.27
2022-12-28T01:01:29.364Z,52.34
2022-12-28T01:04:04.695Z,52.58
2022-12-28T01:06:42.868Z,52.39
2022-12-28T01:09:18.188Z,52.65
2022-12-28T01:11:50.878Z,52.40
2022-12-28T01:14:21.275Z,52.26
2022-12-28T01:16:57.843Z,52.20
2022-12-28T01:19:40.416Z,52.05
2022-12-28T01:22:17.052Z,51.78
2022-12-28T01:24:55.079Z,51.73
2022-12-28T01:27:22.912Z,51.72
2022-12-28T01:29:53.123Z,51.86
2022-12-28T01:32:22.962Z,52.09
2022-12-28T01:34:50.236Z,51.97
2022-12-28T01:37:17.175Z,51.88
2022-12-28T01:39:44.207Z,52.16
2022-12-28T01:42:16.297Z,51.93
2022-12-28T01:44:46.188Z,51.26
2022-12-28T01:47:18.910Z,51.46
2022-12-28T01:50:06.009Z,51.67
2022-12-28T01:52:42.006Z,52.15
2022-12-28T01:55:12.080Z,51.80
2022-12-28T01:57:50.760Z,51.56
2022-12-28T02:00:18.555Z,51.48
2022-12-28T02:02:54.161Z,51.77
2022-12-28T02:05:23.507Z,51.49
2022-12-28T02:08:00.130Z,51.63
2022-12-28T02:10:43.137Z,51.72
2022-12-28T02:13:19.569Z,51.77
2022-12-28T02:15:51.354Z,51.58
2022-12-28T02:18:25.611Z,51.65
2022-12-28T02:21:15.089Z,51.53
2022-12-28T02:24:06.020Z,52.46
2022-12-28T02:26:48.381Z,51.48
2022-12-28T02:29:34.169Z,51.50
2022-12-28T02:32:10.739Z,51.98
2022-12-28T02:34:38.316Z,51.89
2022-12-28T02:37:31.638Z,51.93
2022-12-28T02:40:27.916Z,51.89
2022-12-28T02:43:07.098Z,51.90
2022-12-28T02:46:01.168Z,51.98
2022-12-28T02:49:06.819Z,51.86
2022-12-28T02:51:58.934Z,51.70
2022-12-28T02:54:53.861Z,51.90
2022-12-28T02:57:36.989Z,51.89
2022-12-28T03:00:34.640Z,51.83
2022-12-28T03:03:23.535Z,51.83
2022-12-28T03:06:17.484Z,51.72
2022-12-28T03:09:10.155Z,52.05
2022-12-28T03:12:07.206Z,52.04
2022-12-28T03:14:43.658Z,51.95
2022-12-28T03:17:33.501Z,52.05
2022-12-28T03:20:25.943Z,51.97
2022-12-28T03:23:25.385Z,51.62
2022-12-28T03:26:20.929Z,51.98
2022-12-28T03:29:11.981Z,51.83
2022-12-28T03:31:49.328Z,51.41
2022-12-28T03:34:35.667Z,51.65
2022-12-28T03:37:11.211Z,51.57
2022-12-28T03:39:59.503Z,51.51
2022-12-28T03:43:06.577Z,51.76
2022-12-28T03:45:45.360Z,51.74
2022-12-28T03:48:15.972Z,51.96
2022-12-28T03:50:52.264Z,51.86
2022-12-28T03:53:24.193Z,52.02
2022-12-28T03:56:17.486Z,52.70
2022-12-28T03:58:58.245Z,53.13
2022-12-28T04:01:35.551Z,52.86
2022-12-28T04:04:16.773Z,53.30
2022-12-28T04:06:53.603Z,53.59
2022-12-28T04:09:30.492Z,53.06
2022-12-28T04:12:01.082Z,52.27
2022-12-28T04:15:06.906Z,52.21
2022-12-28T04:17:42.492Z,52.27
2022-12-28T04:20:12.995Z,52.27
2022-12-28T04:22:48.340Z,52.40
2022-12-28T04:25:22.376Z,52.27
2022-12-28T04:28:04.544Z,52.12
2022-12-28T04:31:06.496Z,52.08
2022-12-28T04:33:46.845Z,51.64
2022-12-28T04:36:28.075Z,51.98
2022-12-28T04:38:58.718Z,51.85
2022-12-28T04:41:35.764Z,51.27
2022-12-28T04:44:11.420Z,51.79
2022-12-28T04:46:44.868Z,51.50
2022-12-28T04:49:15.159Z,52.41
2022-12-28T04:51:51.425Z,51.80
2022-12-28T04:54:29.475Z,52.03
2022-12-28T04:57:05.075Z,51.70
2022-12-28T04:59:38.151Z,52.43
2022-12-28T05:02:09.641Z,52.59
2022-12-28T05:04:44.081Z,51.90
2022-12-28T05:07:12.412Z,52.06
2022-12-28T05:09:49.439Z,51.72
2022-12-28T05:12:26.895Z,52.34
2022-12-28T05:15:02.971Z,52.11
2022-12-28T05:17:32.662Z,52.12
2022-12-28T05:20:06.123Z,51.94
2022-12-28T05:22:45.340Z,52.18
2022-12-28T05:25:19.266Z,52.12
2022-12-28T05:27:48.695Z,51.96
2022-12-28T05:30:27.523Z,51.84
2022-12-28T05:33:01.015Z,52.00
2022-12-28T05:35:35.952Z,52.03
2022-12-28T05:38:17.216Z,51.95
2022-12-28T05:40:53.107Z,52.52
2022-12-28T05:43:25.329Z,52.29
2022-12-28T05:45:56.156Z,52.18
2022-12-28T05:48:33.377Z,51.98
2022-12-28T05:51:10.599Z,52.63
2022-12-28T05:53:48.060Z,52.52
2022-12-28T05:56:29.530Z,52.25
2022-12-28T05:59:09.470Z,52.42
2022-12-28T06:01:40.933Z,52.66
2022-12-28T06:04:19.658Z,52.28
2022-12-28T06:07:00.026Z,52.19
2022-12-28T06:09:36.880Z,52.15
2022-12-28T06:12:10.007Z,52.90
2022-12-28T06:14:46.994Z,52.03
2022-12-28T06:17:29.384Z,51.74
2022-12-28T06:19:59.302Z,52.64
2022-12-28T06:22:37.303Z,52.94
2022-12-28T06:25:09.039Z,52.91
2022-12-28T06:27:46.799Z,53.28
2022-12-28T06:30:18.479Z,53.06
2022-12-28T06:32:56.818Z,52.66
2022-12-28T06:35:27.574Z,52.39
2022-12-28T06:38:05.474Z,52.09
2022-12-28T06:41:12.309Z,52.63
2022-12-28T06:43:39.796Z,52.43
2022-12-28T06:46:23.460Z,52.37
2022-12-28T06:48:55.923Z,52.41
2022-12-28T06:51:40.767Z,52.70
2022-12-28T06:54:15.521Z,52.91
2022-12-28T06:56:45.949Z,52.65
2022-12-28T06:59:18.560Z,52.65
2022-12-28T07:01:55.596Z,52.79
2022-12-28T07:04:37.505Z,53.27
2022-12-28T07:07:16.472Z,52.67
2022-12-28T07:09:50.566Z,53.43
2022-12-28T07:12:25.403Z,53.42
2022-12-28T07:15:02.973Z,52.89
2022-12-28T07:17:29.982Z,52.51
2022-12-28T07:19:57.060Z,53.57
2022-12-28T07:22:24.528Z,53.26
2022-12-28T07:24:51.591Z,53.06
2022-12-28T07:27:19.314Z,53.20
2022-12-28T07:29:46.404Z,53.54
2022-12-28T07:32:13.407Z,53.04
2022-12-28T07:34:40.452Z,52.83
2022-12-28T07:37:07.466Z,53.09
2022-12-28T07:39:38.252Z,52.68
2022-12-28T07:42:07.121Z,52.74
2022-12-28T07:44:38.049Z,52.38
2022-12-28T07:47:10.408Z,52.07
2022-12-28T07:49:37.552Z,52.34
2022-12-28T07:52:04.611Z,52.09
2022-12-28T07:54:31.811Z,52.34
2022-12-28T07:57:01.321Z,52.37
2022-12-28T07:59:31.194Z,51.98
2022-12-28T08:01:58.721Z,51.71
2022-12-28T08:04:25.740Z,52.07
2022-12-28T08:06:52.828Z,51.81
2022-12-28T08:09:19.991Z,52.19
2022-12-28T08:11:50.051Z,51.95
2022-12-28T08:14:17.096Z,52.01
2022-12-28T08:16:46.857Z,52.03
2022-12-28T08:19:14.047Z,51.85
2022-12-28T08:21:43.192Z,51.84
2022-12-28T08:24:13.761Z,51.39
2022-12-28T08:26:46.325Z,51.50
2022-12-28T08:29:20.145Z,51.11
2022-12-28T08:31:56.420Z,51.18
2022-12-28T08:34:27.101Z,51.22
2022-12-28T08:37:05.210Z,51.03
2022-12-28T08:39:33.488Z,51.30
2022-12-28T08:42:04.093Z,51.29
2022-12-28T08:44:31.112Z,50.96
2022-12-28T08:46:58.493Z,50.70
2022-12-28T08:49:25.669Z,50.67
2022-12-28T08:51:55.796Z,50.32
2022-12-28T08:54:24.987Z,50.61
2022-12-28T08:56:53.385Z,50.75
2022-12-28T08:59:30.412Z,50.83
2022-12-28T09:02:13.355Z,50.80
2022-12-28T09:04:46.815Z,51.40
2022-12-28T09:07:26.553Z,49.73
2022-12-28T09:09:56.455Z,49.29
2022-12-28T09:15:13.591Z,48.86
2022-12-28T09:17:42.076Z,48.33
2022-12-28T09:20:11.715Z,47.58
2022-12-28T09:22:52.459Z,47.59
2022-12-28T09:25:27.954Z,46.20
2022-12-28T09:27:59.600Z,45.44
2022-12-28T09:30:26.970Z,44.60
2022-12-28T09:33:26.441Z,43.63
2022-12-28T09:36:00.245Z,42.48
2022-12-28T09:38:37.005Z,41.59
2022-12-28T09:41:13.200Z,41.11
2022-12-28T09:43:42.751Z,40.45
2022-12-28T09:46:18.569Z,39.63
2022-12-28T09:48:57.383Z,38.83
2022-12-28T09:51:29.128Z,38.52
2022-12-28T09:54:08.993Z,38.11
2022-12-28T09:56:49.059Z,37.39
2022-12-28T09:59:27.641Z,36.99
2022-12-28T10:01:59.504Z,36.49
2022-12-28T10:04:32.246Z,36.72
2022-12-28T10:07:10.973Z,35.62
2022-12-28T10:09:41.119Z,35.01
2022-12-28T10:12:15.923Z,34.71
2022-12-28T10:14:45.982Z,34.21
2022-12-28T10:17:16.201Z,33.88
2022-12-28T10:19:47.392Z,33.60
2022-12-28T10:22:17.511Z,33.37
2022-12-28T10:24:47.727Z,32.93
2022-12-28T10:27:23.126Z,32.17
2022-12-28T10:29:53.928Z,32.46
2022-12-28T10:32:21.576Z,33.24
2022-12-28T10:35:03.823Z,33.04
2022-12-28T10:37:35.218Z,34.86
2022-12-28T10:40:05.807Z,35.07
2022-12-28T10:42:38.675Z,36.82
2022-12-28T10:45:18.302Z,37.99
2022-12-28T10:47:58.640Z,42.35
2022-12-28T10:50:38.191Z,42.34
2022-12-28T10:53:05.753Z,42.09
2022-12-28T10:55:34.395Z,41.74
2022-12-28T10:58:31.200Z,43.49
2022-12-28T11:01:14.977Z,41.28
2022-12-28T11:03:44.555Z,40.97
2022-12-28T11:06:26.572Z,42.73
2022-12-28T11:09:15.296Z,42.66
2022-12-28T11:11:45.009Z,40.83
2022-12-28T11:14:23.958Z,38.73
2022-12-28T11:16:53.576Z,38.05
2022-12-28T11:19:29.745Z,38.76
2022-12-28T11:22:06.220Z,36.54
2022-12-28T11:24:39.586Z,37.80
2022-12-28T11:27:14.388Z,37.31
2022-12-28T11:29:44.375Z,36.21
2022-12-28T11:32:24.778Z,39.34
2022-12-28T11:34:56.961Z,38.50
2022-12-28T11:37:28.821Z,37.71
2022-12-28T11:39:56.933Z,35.40
2022-12-28T11:42:39.996Z,36.53
2022-12-28T11:45:15.895Z,37.65
2022-12-28T11:47:43.419Z,38.06
2022-12-28T11:50:30.267Z,37.56
2022-12-28T11:52:57.629Z,36.02
2022-12-28T11:55:37.385Z,35.52
2022-12-28T11:58:25.806Z,33.70
2022-12-28T12:00:56.782Z,33.65
2022-12-28T12:03:43.065Z,33.38
2022-12-28T12:06:13.788Z,33.51
2022-12-28T12:08:55.319Z,32.43
2022-12-28T12:11:30.070Z,32.76
2022-12-28T12:14:00.305Z,32.20
2022-12-28T12:16:48.571Z,32.53
2022-12-28T12:19:29.202Z,33.78
2022-12-28T12:22:02.596Z,31.66
2022-12-28T12:24:33.554Z,32.18
2022-12-28T12:27:29.678Z,32.27
2022-12-28T12:30:06.232Z,33.45
2022-12-28T12:32:34.051Z,32.16
2022-12-28T12:35:05.431Z,30.90
2022-12-28T12:37:56.806Z,29.84
2022-12-28T12:40:35.121Z,29.58
2022-12-28T12:43:22.669Z,29.86
2022-12-28T12:46:08.853Z,29.13
2022-12-28T12:48:55.276Z,27.76
2022-12-28T12:51:44.285Z,27.02
2022-12-28T12:54:14.097Z,28.67
2022-12-28T12:56:47.224Z,27.55
2022-12-28T12:59:42.737Z,29.07
2022-12-28T13:02:12.704Z,30.66
2022-12-28T13:04:43.557Z,31.75
2022-12-28T13:07:22.789Z,33.96
2022-12-28T13:09:53.048Z,33.57
2022-12-28T13:12:25.972Z,32.63
2022-12-28T13:15:10.678Z,32.26
2022-12-28T13:17:40.289Z,34.98
2022-12-28T13:20:08.256Z,34.61
2022-12-28T13:22:35.201Z,33.71
2022-12-28T13:25:04.890Z,32.47
2022-12-28T13:27:35.361Z,33.49
2022-12-28T13:30:05.675Z,34.28
2022-12-28T13:32:38.236Z,34.08
2022-12-28T13:35:19.837Z,34.64
2022-12-28T13:38:03.943Z,35.69
2022-12-28T13:40:43.434Z,34.67
2022-12-28T13:43:26.539Z,37.05
2022-12-28T13:46:00.751Z,37.92
2022-12-28T13:48:38.704Z,40.13
2022-12-28T13:51:09.175Z,38.19
2022-12-28T13:53:41.347Z,40.59
2022-12-28T13:56:13.051Z,37.81
2022-12-28T13:58:48.632Z,39.58
2022-12-28T14:01:20.097Z,40.74
2022-12-28T14:03:50.775Z,39.46
2022-12-28T14:06:19.922Z,37.70
2022-12-28T14:08:48.124Z,36.93
2022-12-28T14:11:21.779Z,38.05
2022-12-28T14:13:51.611Z,35.95
2022-12-28T14:16:22.199Z,38.21
2022-12-28T14:18:49.835Z,37.65
2022-12-28T14:21:16.947Z,37.88
2022-12-28T14:23:44.733Z,36.91
2022-12-28T14:26:24.805Z,38.18
2022-12-28T14:28:54.872Z,38.86
2022-12-28T14:31:24.896Z,40.07
2022-12-28T14:33:53.604Z,38.93
2022-12-28T14:36:22.541Z,41.45
2022-12-28T14:39:01.101Z,41.27
2022-12-28T14:41:44.416Z,42.02
2022-12-28T14:44:40.741Z,42.08
2022-12-28T14:47:27.025Z,42.43
2022-12-28T14:49:58.323Z,44.87
2022-12-28T14:52:35.119Z,42.86
2022-12-28T14:55:19.359Z,44.42
2022-12-28T14:57:47.639Z,42.85
2022-12-28T15:00:27.360Z,44.26
2022-12-28T15:03:20.893Z,44.32
2022-12-28T15:05:52.390Z,44.70
2022-12-28T15:08:19.953Z,45.61
2022-12-28T15:10:48.866Z,45.29
2022-12-28T15:13:17.040Z,45.69
2022-12-28T15:18:27.745Z,48.18
2022-12-28T15:20:58.508Z,47.80
2022-12-28T15:23:29.085Z,49.49
2022-12-28T15:26:06.166Z,49.32
2022-12-28T15:28:33.263Z,48.03
2022-12-28T15:31:07.253Z,50.69
2022-12-28T15:33:35.979Z,51.20
2022-12-28T15:36:10.768Z,51.98
2022-12-28T15:38:41.535Z,51.63
2022-12-28T15:41:30.151Z,52.77
2022-12-28T15:43:58.171Z,52.52
2022-12-28T15:46:25.712Z,52.77
2022-12-28T15:48:53.384Z,52.51
2022-12-28T15:51:26.605Z,54.01
2022-12-28T15:53:53.707Z,55.11
2022-12-28T15:56:24.762Z,55.17
2022-12-28T15:58:55.065Z,55.03
2022-12-28T16:01:22.946Z,54.12
2022-12-28T16:03:53.862Z,54.35
2022-12-28T16:06:26.514Z,53.73
2022-12-28T16:08:55.237Z,54.85
2022-12-28T16:11:27.464Z,55.05
2022-12-28T16:14:18.410Z,54.40
2022-12-28T16:16:47.159Z,56.40
2022-12-28T16:19:15.071Z,55.73
2022-12-28T16:21:44.623Z,55.25
2022-12-28T16:24:12.321Z,55.32
2022-12-28T16:26:39.446Z,57.58
2022-12-28T16:29:06.685Z,56.54
2022-12-28T16:31:35.059Z,56.25
2022-12-28T16:34:11.898Z,57.00
2022-12-28T16:36:41.935Z,57.41
2022-12-28T16:39:18.611Z,56.89
2022-12-28T16:41:45.746Z,59.26
2022-12-28T16:44:21.001Z,58.35
2022-12-28T16:46:48.632Z,57.95
2022-12-28T16:49:15.746Z,59.94
2022-12-28T16:51:44.117Z,58.79
2022-12-28T16:54:20.889Z,57.68
2022-12-28T16:56:48.590Z,59.12
2022-12-28T16:59:16.947Z,59.00
2022-12-28T17:01:48.035Z,58.33
2022-12-28T17:04:18.174Z,58.82
2022-12-28T17:06:48.529Z,57.74
2022-12-28T17:09:15.649Z,58.71
2022-12-28T17:11:42.767Z,58.87
2022-12-28T17:14:10.951Z,58.48
2022-12-28T17:16:43.415Z,58.66
2022-12-28T17:19:18.677Z,57.51
2022-12-28T17:21:46.703Z,57.42
2022-12-28T17:24:16.887Z,56.99
2022-12-28T17:26:51.511Z,57.04
2022-12-28T17:29:19.458Z,56.93
2022-12-28T17:31:51.549Z,57.08
2022-12-28T17:34:29.160Z,57.60
2022-12-28T17:37:00.955Z,56.81
2022-12-28T17:39:40.181Z,57.85
2022-12-28T17:42:12.094Z,56.93
2022-12-28T17:44:41.598Z,56.57
2022-12-28T17:47:11.120Z,57.25
2022-12-28T17:49:38.186Z,56.77
2022-12-28T17:52:13.656Z,56.55
2022-12-28T17:54:44.465Z,55.84
2022-12-28T17:57:14.099Z,56.35
2022-12-28T17:59:41.472Z,56.30
2022-12-28T18:02:13.235Z,56.55
2022-12-28T18:04:50.084Z,56.23
2022-12-28T18:07:28.504Z,56.57
2022-12-28T18:09:59.646Z,56.59
2022-12-28T18:12:32.855Z,56.70
2022-12-28T18:15:02.674Z,57.06
2022-12-28T18:17:30.239Z,57.67
2022-12-28T18:20:04.222Z,57.84
2022-12-28T18:22:42.225Z,57.04
2022-12-28T18:25:09.801Z,57.60
2022-12-28T18:27:45.434Z,57.85
2022-12-28T18:30:22.581Z,57.33
2022-12-28T18:32:52.388Z,58.33
2022-12-28T18:35:31.057Z,58.60
2022-12-28T18:37:58.714Z,59.35
2022-12-28T18:40:26.372Z,57.74
2022-12-28T18:42:57.647Z,57.88
2022-12-28T18:45:25.900Z,58.30
2022-12-28T18:47:53.312Z,58.34
2022-12-28T18:50:25.629Z,58.23
2022-12-28T18:52:54.117Z,57.43
2022-12-28T18:55:24.661Z,56.68
2022-12-28T18:57:52.200Z,56.83
2022-12-28T19:00:19.757Z,56.48
2022-12-28T19:02:50.757Z,56.14
2022-12-28T19:05:18.084Z,56.50
2022-12-28T19:07:50.262Z,55.92
2022-12-28T19:10:21.497Z,56.41
2022-12-28T19:12:48.733Z,56.40
2022-12-28T19:15:16.029Z,56.33
2022-12-28T19:17:45.841Z,56.11
2022-12-28T19:20:15.467Z,55.87
2022-12-28T19:22:51.499Z,56.23
2022-12-28T19:25:23.458Z,56.71
2022-12-28T19:27:51.239Z,55.74
2022-12-28T19:30:18.808Z,55.27
2022-12-28T19:32:46.144Z,55.74
2022-12-28T19:35:15.846Z,54.80
2022-12-28T19:37:46.741Z,54.79
2022-12-28T19:40:17.300Z,54.80
2022-12-28T19:42:46.716Z,54.39
2022-12-28T19:45:16.884Z,54.76
2022-12-28T19:47:44.885Z,54.98
2022-12-28T19:50:15.333Z,54.83
2022-12-28T19:52:54.670Z,54.97
2022-12-28T19:55:24.918Z,54.63
2022-12-28T19:57:54.119Z,54.93
2022-12-28T20:00:21.726Z,54.24
2022-12-28T20:02:49.827Z,54.33
2022-12-28T20:05:26.088Z,53.78
2022-12-28T20:07:55.778Z,53.77
2022-12-28T20:10:23.481Z,54.21
2022-12-28T20:13:00.211Z,53.59
2022-12-28T20:15:45.498Z,54.01
2022-12-28T20:18:14.878Z,55.01
2022-12-28T20:21:17.498Z,54.67
2022-12-28T20:23:32.162Z,54.94
2022-12-28T20:26:04.774Z,54.79
2022-12-28T20:28:35.636Z,54.61
2022-12-28T20:31:17.894Z,54.09
2022-12-28T20:33:53.930Z,54.11
2022-12-28T20:36:35.272Z,53.71
2022-12-28T20:39:10.363Z,53.76
2022-12-28T20:42:06.433Z,53.46
2022-12-28T20:44:38.189Z,53.73
2022-12-28T20:47:12.989Z,53.63
2022-12-28T20:49:49.101Z,53.95
2022-12-28T20:52:27.751Z,53.85
2022-12-28T20:54:59.616Z,53.70
2022-12-28T20:57:31.445Z,53.71
2022-12-28T21:00:01.401Z,53.69
2022-12-28T21:02:32.663Z,53.40
2022-12-28T21:05:04.488Z,53.35
2022-12-28T21:07:40.951Z,53.59
2022-12-28T21:10:29.303Z,53.11
2022-12-28T21:13:12.733Z,53.29
2022-12-28T21:15:42.068Z,53.14
2022-12-28T21:18:19.443Z,53.13
2022-12-28T21:21:03.892Z,52.96
2022-12-28T21:23:32.207Z,53.05
2022-12-28T21:26:06.489Z,53.17
2022-12-28T21:28:42.343Z,53.08
2022-12-28T21:31:10.530Z,53.32
2022-12-28T21:33:53.817Z,53.43
2022-12-28T21:36:22.632Z,53.32
2022-12-28T21:38:54.619Z,53.33
2022-12-28T21:41:43.210Z,53.54
2022-12-28T21:44:13.392Z,53.84
2022-12-28T21:46:48.842Z,53.51
2022-12-28T21:49:21.685Z,53.76
2022-12-28T21:51:50.830Z,53.68
2022-12-28T21:54:22.520Z,53.66
2022-12-28T21:57:05.817Z,53.82
2022-12-28T21:59:33.074Z,53.55
2022-12-28T22:02:18.840Z,53.39
2022-12-28T22:05:11.430Z,53.40
2022-12-28T22:07:39.496Z,53.42
2022-12-28T22:10:43.126Z,53.57
2022-12-28T22:13:15.653Z,53.58
2022-12-28T22:16:01.844Z,53.66
2022-12-28T22:19:01.461Z,53.40
2022-12-28T22:21:35.282Z,53.69
2022-12-28T22:24:13.482Z,53.66
2022-12-28T22:26:42.951Z,53.72
2022-12-28T22:29:25.564Z,53.90
2022-12-28T22:31:56.379Z,53.68
2022-12-28T22:34:24.912Z,53.71
2022-12-28T22:36:58.221Z,53.86
2022-12-28T22:39:31.380Z,54.06
2022-12-28T22:42:15.972Z,53.61
2022-12-28T22:44:45.666Z,54.09
2022-12-28T22:47:23.463Z,53.89
2022-12-28T22:50:07.530Z,53.67
2022-12-28T22:52:37.184Z,54.06
2022-12-28T22:55:16.013Z,54.09
2022-12-28T22:57:50.083Z,54.01
2022-12-28T23:00:22.988Z,53.99
2022-12-28T23:02:58.142Z,54.19
2022-12-28T23:08:28.969Z,53.55
2022-12-28T23:14:49.286Z,54.09
2022-12-28T23:20:45.824Z,54.21
2022-12-28T23:27:01.929Z,54.39
2022-12-28T23:29:41.087Z,54.25
2022-12-28T23:32:22.801Z,54.42
2022-12-28T23:35:00.235Z,54.42
2022-12-28T23:37:41.879Z,54.35
2022-12-28T23:40:21.142Z,54.59
2022-12-28T23:42:56.187Z,54.40
2022-12-28T23:45:39.490Z,54.79
2022-12-28T23:48:13.563Z,54.55
2022-12-28T23:51:10.729Z,54.59
2022-12-28T23:53:44.308Z,54.39
2022-12-28T23:56:18.907Z,54.66
2022-12-28T23:58:55.391Z,54.35
